sensor_id;sensor_type;location;lat;lon;timestamp;P1;durP1;ratioP1;P2;durP2;ratioP2
48685;SDS011;34485;51.536;3.816;2022-08-11T00:02:29;3.13;;;2.73;;
48685;SDS011;34485;51.536;3.816;2022-08-11T00:05:02;5.18;;;3.20;;
48685;SDS011;34485;51.536;3.816;2022-08-11T00:07:31;5.65;;;3.30;;
48685;SDS011;34485;51.536;3.816;2022-08-11T00:09:57;7.28;;;3.50;;
48685;SDS011;34485;51.536;3.816;2022-08-11T00:12:24;4.93;;;3.50;;
48685;SDS011;34485;51.536;3.816;2022-08-11T00:14:58;3.97;;;2.70;;
48685;SDS011;34485;51.536;3.816;2022-08-11T00:17:26;4.28;;;3.58;;
48685;SDS011;34485;51.536;3.816;2022-08-11T00:20:01;2.95;;;2.50;;
48685;SDS011;34485;51.536;3.816;2022-08-11T00:22:33;5.95;;;3.30;;
48685;SDS011;34485;51.536;3.816;2022-08-11T00:25:07;3.60;;;3.28;;
48685;SDS011;34485;51.536;3.816;2022-08-11T00:27:38;3.33;;;3.13;;
48685;SDS011;34485;51.536;3.816;2022-08-11T00:30:07;3.75;;;3.08;;
48685;SDS011;34485;51.536;3.816;2022-08-11T00:32:40;4.05;;;3.75;;
48685;SDS011;34485;51.536;3.816;2022-08-11T00:35:10;3.50;;;3.20;;
48685;SDS011;34485;51.536;3.816;2022-08-11T00:37:37;4.93;;;3.58;;
48685;SDS011;34485;51.536;3.816;2022-08-11T00:40:08;5.33;;;3.70;;
48685;SDS011;34485;51.536;3.816;2022-08-11T00:45:45;4.55;;;3.95;;
48685;SDS011;34485;51.536;3.816;2022-08-11T00:51:51;3.85;;;2.97;;
48685;SDS011;34485;51.536;3.816;2022-08-11T01:02:18;4.00;;;3.70;;
48685;SDS011;34485;51.536;3.816;2022-08-11T01:22:08;4.05;;;3.75;;
48685;SDS011;34485;51.536;3.816;2022-08-11T01:24:45;4.45;;;4.05;;
48685;SDS011;34485;51.536;3.816;2022-08-11T01:33:07;5.00;;;3.47;;
48685;SDS011;34485;51.536;3.816;2022-08-11T01:47:57;4.93;;;3.00;;
48685;SDS011;34485;51.536;3.816;2022-08-11T01:53:49;8.48;;;4.05;;
48685;SDS011;34485;51.536;3.816;2022-08-11T01:56:40;4.97;;;3.65;;
48685;SDS011;34485;51.536;3.816;2022-08-11T01:59:27;5.47;;;4.23;;
48685;SDS011;34485;51.536;3.816;2022-08-11T02:10:56;8.07;;;3.90;;
48685;SDS011;34485;51.536;3.816;2022-08-11T02:13:49;5.97;;;4.10;;
48685;SDS011;34485;51.536;3.816;2022-08-11T02:18:54;7.05;;;4.22;;
48685;SDS011;34485;51.536;3.816;2022-08-11T02:21:58;4.78;;;3.80;;
48685;SDS011;34485;51.536;3.816;2022-08-11T02:27:40;5.10;;;3.63;;
48685;SDS011;34485;51.536;3.816;2022-08-11T02:30:12;4.05;;;3.65;;
48685;SDS011;34485;51.536;3.816;2022-08-11T02:32:49;4.63;;;4.22;;
48685;SDS011;34485;51.536;3.816;2022-08-11T02:38:32;4.22;;;3.80;;
48685;SDS011;34485;51.536;3.816;2022-08-11T02:47:05;4.30;;;3.83;;
48685;SDS011;34485;51.536;3.816;2022-08-11T02:50:02;5.18;;;4.10;;
48685;SDS011;34485;51.536;3.816;2022-08-11T02:52:42;6.90;;;3.80;;
48685;SDS011;34485;51.536;3.816;2022-08-11T02:55:34;4.73;;;4.33;;
48685;SDS011;34485;51.536;3.816;2022-08-11T03:01:05;4.60;;;4.20;;
48685;SDS011;34485;51.536;3.816;2022-08-11T03:04:21;4.88;;;4.47;;
48685;SDS011;34485;51.536;3.816;2022-08-11T03:06:38;5.70;;;4.35;;
48685;SDS011;34485;51.536;3.816;2022-08-11T03:09:21;5.23;;;4.60;;
48685;SDS011;34485;51.536;3.816;2022-08-11T03:12:01;5.05;;;4.55;;
48685;SDS011;34485;51.536;3.816;2022-08-11T03:14:54;5.93;;;4.20;;
48685;SDS011;34485;51.536;3.816;2022-08-11T03:20:35;17.08;;;4.82;;
48685;SDS011;34485;51.536;3.816;2022-08-11T03:33:59;4.75;;;4.28;;
48685;SDS011;34485;51.536;3.816;2022-08-11T03:39:18;5.60;;;3.97;;
48685;SDS011;34485;51.536;3.816;2022-08-11T03:44:42;5.65;;;5.22;;
48685;SDS011;34485;51.536;3.816;2022-08-11T03:47:40;7.07;;;5.22;;
48685;SDS011;34485;51.536;3.816;2022-08-11T03:53:34;6.18;;;5.05;;
48685;SDS011;34485;51.536;3.816;2022-08-11T04:15:03;5.13;;;4.63;;
48685;SDS011;34485;51.536;3.816;2022-08-11T04:46:47;7.70;;;5.10;;
48685;SDS011;34485;51.536;3.816;2022-08-11T04:55:58;7.10;;;4.05;;
48685;SDS011;34485;51.536;3.816;2022-08-11T04:58:54;6.05;;;4.55;;
48685;SDS011;34485;51.536;3.816;2022-08-11T05:13:33;5.03;;;4.35;;
48685;SDS011;34485;51.536;3.816;2022-08-11T05:16:27;6.60;;;5.70;;
48685;SDS011;34485;51.536;3.816;2022-08-11T05:19:18;7.93;;;5.55;;
48685;SDS011;34485;51.536;3.816;2022-08-11T05:22:07;5.32;;;4.80;;
48685;SDS011;34485;51.536;3.816;2022-08-11T05:24:56;5.80;;;3.80;;
48685;SDS011;34485;51.536;3.816;2022-08-11T05:27:49;5.40;;;4.80;;
48685;SDS011;34485;51.536;3.816;2022-08-11T05:30:40;5.93;;;5.20;;
48685;SDS011;34485;51.536;3.816;2022-08-11T05:33:32;4.40;;;3.90;;
48685;SDS011;34485;51.536;3.816;2022-08-11T05:36:35;5.30;;;4.80;;
48685;SDS011;34485;51.536;3.816;2022-08-11T05:39:04;4.85;;;4.38;;
48685;SDS011;34485;51.536;3.816;2022-08-11T05:41:56;4.85;;;4.07;;
48685;SDS011;34485;51.536;3.816;2022-08-11T05:44:43;4.80;;;4.20;;
48685;SDS011;34485;51.536;3.816;2022-08-11T05:47:28;14.18;;;4.10;;
48685;SDS011;34485;51.536;3.816;2022-08-11T05:50:13;9.40;;;4.38;;
48685;SDS011;34485;51.536;3.816;2022-08-11T05:53:00;5.05;;;4.65;;
48685;SDS011;34485;51.536;3.816;2022-08-11T05:55:45;5.07;;;4.53;;
48685;SDS011;34485;51.536;3.816;2022-08-11T05:58:32;5.63;;;4.40;;
48685;SDS011;34485;51.536;3.816;2022-08-11T06:01:11;7.13;;;3.72;;
48685;SDS011;34485;51.536;3.816;2022-08-11T06:03:38;5.88;;;4.30;;
48685;SDS011;34485;51.536;3.816;2022-08-11T06:06:27;6.32;;;4.25;;
48685;SDS011;34485;51.536;3.816;2022-08-11T06:08:54;3.92;;;3.58;;
48685;SDS011;34485;51.536;3.816;2022-08-11T06:11:21;6.33;;;4.27;;
48685;SDS011;34485;51.536;3.816;2022-08-11T06:13:48;8.30;;;3.85;;
48685;SDS011;34485;51.536;3.816;2022-08-11T06:16:18;5.20;;;4.20;;
48685;SDS011;34485;51.536;3.816;2022-08-11T06:18:46;6.82;;;3.85;;
48685;SDS011;34485;51.536;3.816;2022-08-11T06:21:13;7.20;;;4.47;;
48685;SDS011;34485;51.536;3.816;2022-08-11T06:23:41;12.10;;;4.70;;
48685;SDS011;34485;51.536;3.816;2022-08-11T06:26:08;6.43;;;4.22;;
48685;SDS011;34485;51.536;3.816;2022-08-11T06:28:36;6.18;;;4.65;;
48685;SDS011;34485;51.536;3.816;2022-08-11T06:33:52;6.68;;;4.85;;
48685;SDS011;34485;51.536;3.816;2022-08-11T06:36:29;7.50;;;4.70;;
48685;SDS011;34485;51.536;3.816;2022-08-11T06:39:20;4.38;;;3.97;;
48685;SDS011;34485;51.536;3.816;2022-08-11T06:41:56;11.77;;;4.95;;
48685;SDS011;34485;51.536;3.816;2022-08-11T06:44:32;6.28;;;4.75;;
48685;SDS011;34485;51.536;3.816;2022-08-11T06:47:07;6.47;;;4.75;;
48685;SDS011;34485;51.536;3.816;2022-08-11T06:49:41;5.50;;;4.57;;
48685;SDS011;34485;51.536;3.816;2022-08-11T06:52:33;7.07;;;5.10;;
48685;SDS011;34485;51.536;3.816;2022-08-11T06:57:36;6.20;;;4.63;;
48685;SDS011;34485;51.536;3.816;2022-08-11T07:00:22;6.80;;;4.07;;
48685;SDS011;34485;51.536;3.816;2022-08-11T07:03:05;8.00;;;4.97;;
48685;SDS011;34485;51.536;3.816;2022-08-11T07:14:32;7.93;;;4.75;;
48685;SDS011;34485;51.536;3.816;2022-08-11T07:17:21;10.90;;;4.70;;
48685;SDS011;34485;51.536;3.816;2022-08-11T07:19:56;7.00;;;4.30;;
48685;SDS011;34485;51.536;3.816;2022-08-11T07:22:42;7.13;;;4.65;;
48685;SDS011;34485;51.536;3.816;2022-08-11T07:25:34;6.75;;;4.65;;
48685;SDS011;34485;51.536;3.816;2022-08-11T07:28:23;5.13;;;4.63;;
48685;SDS011;34485;51.536;3.816;2022-08-11T07:31:09;5.90;;;4.83;;
48685;SDS011;34485;51.536;3.816;2022-08-11T07:33:41;9.50;;;4.70;;
48685;SDS011;34485;51.536;3.816;2022-08-11T07:36:11;5.45;;;4.13;;
48685;SDS011;34485;51.536;3.816;2022-08-11T07:38:40;10.75;;;4.53;;
48685;SDS011;34485;51.536;3.816;2022-08-11T07:41:12;8.60;;;4.88;;
48685;SDS011;34485;51.536;3.816;2022-08-11T07:43:39;7.57;;;4.83;;
48685;SDS011;34485;51.536;3.816;2022-08-11T07:46:06;4.63;;;4.15;;
48685;SDS011;34485;51.536;3.816;2022-08-11T07:48:52;7.95;;;4.70;;
48685;SDS011;34485;51.536;3.816;2022-08-11T07:51:38;9.98;;;4.55;;
48685;SDS011;34485;51.536;3.816;2022-08-11T07:54:24;9.57;;;4.95;;
48685;SDS011;34485;51.536;3.816;2022-08-11T07:56:50;5.13;;;4.70;;
48685;SDS011;34485;51.536;3.816;2022-08-11T07:59:17;8.35;;;4.95;;
48685;SDS011;34485;51.536;3.816;2022-08-11T08:02:02;5.80;;;5.03;;
48685;SDS011;34485;51.536;3.816;2022-08-11T08:04:47;6.57;;;4.38;;
48685;SDS011;34485;51.536;3.816;2022-08-11T08:07:32;7.47;;;4.07;;
48685;SDS011;34485;51.536;3.816;2022-08-11T08:10:17;4.83;;;3.87;;
48685;SDS011;34485;51.536;3.816;2022-08-11T08:13:02;9.73;;;4.22;;
48685;SDS011;34485;51.536;3.816;2022-08-11T08:15:48;7.85;;;5.13;;
48685;SDS011;34485;51.536;3.816;2022-08-11T08:18:33;5.10;;;4.53;;
48685;SDS011;34485;51.536;3.816;2022-08-11T08:21:02;11.48;;;4.40;;
48685;SDS011;34485;51.536;3.816;2022-08-11T08:23:39;5.50;;;4.10;;
48685;SDS011;34485;51.536;3.816;2022-08-11T08:26:08;7.95;;;5.03;;
48685;SDS011;34485;51.536;3.816;2022-08-11T08:28:55;7.40;;;4.85;;
48685;SDS011;34485;51.536;3.816;2022-08-11T08:31:50;4.85;;;4.28;;
48685;SDS011;34485;51.536;3.816;2022-08-11T08:34:16;6.35;;;5.32;;
48685;SDS011;34485;51.536;3.816;2022-08-11T08:36:47;9.47;;;4.63;;
48685;SDS011;34485;51.536;3.816;2022-08-11T08:39:17;7.43;;;4.60;;
48685;SDS011;34485;51.536;3.816;2022-08-11T08:41:45;7.07;;;4.70;;
48685;SDS011;34485;51.536;3.816;2022-08-11T08:44:16;9.18;;;4.65;;
48685;SDS011;34485;51.536;3.816;2022-08-11T08:46:45;4.55;;;4.13;;
48685;SDS011;34485;51.536;3.816;2022-08-11T08:49:17;5.07;;;4.07;;
48685;SDS011;34485;51.536;3.816;2022-08-11T08:51:48;4.95;;;4.50;;
48685;SDS011;34485;51.536;3.816;2022-08-11T08:54:18;5.10;;;4.60;;
48685;SDS011;34485;51.536;3.816;2022-08-11T08:56:48;8.63;;;4.40;;
48685;SDS011;34485;51.536;3.816;2022-08-11T08:59:19;4.72;;;4.32;;
48685;SDS011;34485;51.536;3.816;2022-08-11T09:04:15;7.20;;;4.38;;
48685;SDS011;34485;51.536;3.816;2022-08-11T09:06:57;9.13;;;4.70;;
48685;SDS011;34485;51.536;3.816;2022-08-11T09:09:24;8.10;;;4.88;;
48685;SDS011;34485;51.536;3.816;2022-08-11T09:11:51;8.82;;;4.60;;
48685;SDS011;34485;51.536;3.816;2022-08-11T09:14:21;9.80;;;4.90;;
48685;SDS011;34485;51.536;3.816;2022-08-11T09:16:49;8.77;;;5.03;;
48685;SDS011;34485;51.536;3.816;2022-08-11T09:19:17;5.95;;;4.93;;
48685;SDS011;34485;51.536;3.816;2022-08-11T09:21:46;6.88;;;4.40;;
48685;SDS011;34485;51.536;3.816;2022-08-11T09:24:32;5.32;;;4.82;;
48685;SDS011;34485;51.536;3.816;2022-08-11T09:27:19;9.03;;;4.13;;
48685;SDS011;34485;51.536;3.816;2022-08-11T09:29:46;4.78;;;3.72;;
48685;SDS011;34485;51.536;3.816;2022-08-11T09:32:12;5.35;;;4.40;;
48685;SDS011;34485;51.536;3.816;2022-08-11T09:34:39;4.78;;;3.97;;
48685;SDS011;34485;51.536;3.816;2022-08-11T09:37:05;6.97;;;4.25;;
48685;SDS011;34485;51.536;3.816;2022-08-11T09:39:52;11.30;;;4.63;;
48685;SDS011;34485;51.536;3.816;2022-08-11T09:42:39;6.43;;;3.85;;
48685;SDS011;34485;51.536;3.816;2022-08-11T09:45:24;8.30;;;4.25;;
48685;SDS011;34485;51.536;3.816;2022-08-11T09:47:51;6.10;;;4.38;;
48685;SDS011;34485;51.536;3.816;2022-08-11T09:50:18;10.35;;;4.50;;
48685;SDS011;34485;51.536;3.816;2022-08-11T09:52:44;5.20;;;4.40;;
48685;SDS011;34485;51.536;3.816;2022-08-11T09:55:12;6.18;;;4.35;;
48685;SDS011;34485;51.536;3.816;2022-08-11T09:57:40;3.92;;;3.53;;
48685;SDS011;34485;51.536;3.816;2022-08-11T10:00:32;5.38;;;4.38;;
48685;SDS011;34485;51.536;3.816;2022-08-11T10:03:11;5.40;;;3.90;;
48685;SDS011;34485;51.536;3.816;2022-08-11T10:05:39;4.57;;;4.20;;
48685;SDS011;34485;51.536;3.816;2022-08-11T10:08:30;4.10;;;3.13;;
48685;SDS011;34485;51.536;3.816;2022-08-11T10:10:57;3.20;;;3.00;;
48685;SDS011;34485;51.536;3.816;2022-08-11T10:13:25;5.22;;;3.53;;
48685;SDS011;34485;51.536;3.816;2022-08-11T10:16:00;2.83;;;2.63;;
48685;SDS011;34485;51.536;3.816;2022-08-11T10:18:40;3.90;;;2.80;;
48685;SDS011;34485;51.536;3.816;2022-08-11T10:23:52;3.42;;;3.13;;
48685;SDS011;34485;51.536;3.816;2022-08-11T10:26:37;7.57;;;3.70;;
48685;SDS011;34485;51.536;3.816;2022-08-11T10:29:19;6.07;;;3.40;;
48685;SDS011;34485;51.536;3.816;2022-08-11T10:32:05;3.73;;;3.43;;
48685;SDS011;34485;51.536;3.816;2022-08-11T10:34:51;5.75;;;2.92;;
48685;SDS011;34485;51.536;3.816;2022-08-11T10:37:19;3.28;;;3.08;;
48685;SDS011;34485;51.536;3.816;2022-08-11T10:39:47;11.77;;;3.50;;
48685;SDS011;34485;51.536;3.816;2022-08-11T10:42:14;5.10;;;2.92;;
48685;SDS011;34485;51.536;3.816;2022-08-11T10:44:59;5.80;;;3.20;;
48685;SDS011;34485;51.536;3.816;2022-08-11T10:47:28;3.33;;;2.97;;
48685;SDS011;34485;51.536;3.816;2022-08-11T10:50:18;3.75;;;2.95;;
48685;SDS011;34485;51.536;3.816;2022-08-11T10:53:02;4.18;;;3.40;;
48685;SDS011;34485;51.536;3.816;2022-08-11T10:55:47;3.38;;;3.17;;
48685;SDS011;34485;51.536;3.816;2022-08-11T10:58:31;3.43;;;3.10;;
48685;SDS011;34485;51.536;3.816;2022-08-11T11:01:25;4.13;;;3.13;;
48685;SDS011;34485;51.536;3.816;2022-08-11T11:03:55;5.28;;;2.78;;
48685;SDS011;34485;51.536;3.816;2022-08-11T11:09:33;3.65;;;3.35;;
48685;SDS011;34485;51.536;3.816;2022-08-11T11:12:24;8.63;;;3.47;;
48685;SDS011;34485;51.536;3.816;2022-08-11T11:15:16;4.10;;;3.60;;
48685;SDS011;34485;51.536;3.816;2022-08-11T11:18:07;6.93;;;3.05;;
48685;SDS011;34485;51.536;3.816;2022-08-11T11:21:10;15.95;;;3.22;;
48685;SDS011;34485;51.536;3.816;2022-08-11T11:26:56;3.50;;;3.00;;
48685;SDS011;34485;51.536;3.816;2022-08-11T11:35:00;4.93;;;3.08;;
48685;SDS011;34485;51.536;3.816;2022-08-11T11:37:37;3.40;;;2.50;;
48685;SDS011;34485;51.536;3.816;2022-08-11T11:40:09;3.77;;;2.60;;
48685;SDS011;34485;51.536;3.816;2022-08-11T11:42:40;3.10;;;2.85;;
48685;SDS011;34485;51.536;3.816;2022-08-11T11:45:08;4.47;;;3.03;;
48685;SDS011;34485;51.536;3.816;2022-08-11T11:47:36;4.55;;;2.90;;
48685;SDS011;34485;51.536;3.816;2022-08-11T11:50:03;3.10;;;2.80;;
48685;SDS011;34485;51.536;3.816;2022-08-11T11:52:30;3.10;;;2.60;;
48685;SDS011;34485;51.536;3.816;2022-08-11T11:54:56;2.83;;;2.63;;
48685;SDS011;34485;51.536;3.816;2022-08-11T11:57:24;3.28;;;2.63;;
48685;SDS011;34485;51.536;3.816;2022-08-11T12:00:09;3.05;;;2.85;;
48685;SDS011;34485;51.536;3.816;2022-08-11T12:02:55;2.75;;;2.53;;
48685;SDS011;34485;51.536;3.816;2022-08-11T12:05:26;3.93;;;2.47;;
48685;SDS011;34485;51.536;3.816;2022-08-11T12:07:53;7.38;;;2.72;;
48685;SDS011;34485;51.536;3.816;2022-08-11T12:10:43;4.95;;;2.60;;
48685;SDS011;34485;51.536;3.816;2022-08-11T12:13:35;4.90;;;2.60;;
48685;SDS011;34485;51.536;3.816;2022-08-11T12:16:07;5.95;;;2.70;;
48685;SDS011;34485;51.536;3.816;2022-08-11T12:18:34;7.30;;;3.10;;
48685;SDS011;34485;51.536;3.816;2022-08-11T12:21:01;3.20;;;2.65;;
48685;SDS011;34485;51.536;3.816;2022-08-11T12:23:28;6.50;;;2.45;;
48685;SDS011;34485;51.536;3.816;2022-08-11T12:26:14;6.82;;;3.28;;
48685;SDS011;34485;51.536;3.816;2022-08-11T12:29:00;3.22;;;2.72;;
48685;SDS011;34485;51.536;3.816;2022-08-11T12:31:32;5.90;;;2.90;;
48685;SDS011;34485;51.536;3.816;2022-08-11T12:34:04;5.22;;;2.90;;
48685;SDS011;34485;51.536;3.816;2022-08-11T12:37:17;4.20;;;2.90;;
48685;SDS011;34485;51.536;3.816;2022-08-11T12:39:24;3.88;;;2.60;;
48685;SDS011;34485;51.536;3.816;2022-08-11T12:42:10;6.03;;;3.20;;
48685;SDS011;34485;51.536;3.816;2022-08-11T12:44:57;5.80;;;3.20;;
48685;SDS011;34485;51.536;3.816;2022-08-11T12:47:46;3.63;;;3.13;;
48685;SDS011;34485;51.536;3.816;2022-08-11T12:50:33;3.95;;;2.85;;
48685;SDS011;34485;51.536;3.816;2022-08-11T12:53:22;3.35;;;3.05;;
48685;SDS011;34485;51.536;3.816;2022-08-11T12:55:52;3.22;;;3.03;;
48685;SDS011;34485;51.536;3.816;2022-08-11T12:58:40;5.90;;;3.30;;
48685;SDS011;34485;51.536;3.816;2022-08-11T13:01:06;3.15;;;2.80;;
48685;SDS011;34485;51.536;3.816;2022-08-11T13:03:52;5.10;;;3.10;;
48685;SDS011;34485;51.536;3.816;2022-08-11T13:06:37;5.00;;;3.33;;
48685;SDS011;34485;51.536;3.816;2022-08-11T13:09:03;4.10;;;3.05;;
48685;SDS011;34485;51.536;3.816;2022-08-11T13:11:30;3.67;;;3.37;;
48685;SDS011;34485;51.536;3.816;2022-08-11T13:14:15;3.03;;;2.83;;
48685;SDS011;34485;51.536;3.816;2022-08-11T13:16:41;3.50;;;3.20;;
48685;SDS011;34485;51.536;3.816;2022-08-11T13:19:27;4.10;;;3.20;;
48685;SDS011;34485;51.536;3.816;2022-08-11T13:21:55;10.98;;;3.40;;
48685;SDS011;34485;51.536;3.816;2022-08-11T13:24:22;3.23;;;2.93;;
48685;SDS011;34485;51.536;3.816;2022-08-11T13:26:48;3.35;;;3.05;;
48685;SDS011;34485;51.536;3.816;2022-08-11T13:29:22;3.05;;;2.85;;
48685;SDS011;34485;51.536;3.816;2022-08-11T13:31:49;8.00;;;3.10;;
48685;SDS011;34485;51.536;3.816;2022-08-11T13:34:18;4.88;;;3.03;;
48685;SDS011;34485;51.536;3.816;2022-08-11T13:36:45;3.20;;;2.90;;
48685;SDS011;34485;51.536;3.816;2022-08-11T13:39:15;4.85;;;3.25;;
48685;SDS011;34485;51.536;3.816;2022-08-11T13:41:42;6.32;;;3.30;;
48685;SDS011;34485;51.536;3.816;2022-08-11T13:44:12;3.15;;;2.95;;
48685;SDS011;34485;51.536;3.816;2022-08-11T13:46:39;8.68;;;2.85;;
48685;SDS011;34485;51.536;3.816;2022-08-11T13:49:07;6.07;;;3.47;;
48685;SDS011;34485;51.536;3.816;2022-08-11T13:51:35;5.07;;;3.17;;
48685;SDS011;34485;51.536;3.816;2022-08-11T13:54:06;4.85;;;3.13;;
48685;SDS011;34485;51.536;3.816;2022-08-11T13:56:34;4.13;;;2.85;;
48685;SDS011;34485;51.536;3.816;2022-08-11T13:59:06;6.32;;;3.25;;
48685;SDS011;34485;51.536;3.816;2022-08-11T14:01:33;3.60;;;3.30;;
48685;SDS011;34485;51.536;3.816;2022-08-11T14:04:19;4.10;;;3.47;;
48685;SDS011;34485;51.536;3.816;2022-08-11T14:07:05;17.20;;;3.47;;
48685;SDS011;34485;51.536;3.816;2022-08-11T14:09:35;9.95;;;3.60;;
48685;SDS011;34485;51.536;3.816;2022-08-11T14:12:06;4.97;;;3.15;;
48685;SDS011;34485;51.536;3.816;2022-08-11T14:15:03;4.47;;;3.13;;
48685;SDS011;34485;51.536;3.816;2022-08-11T14:17:33;3.50;;;3.00;;
48685;SDS011;34485;51.536;3.816;2022-08-11T14:20:03;6.50;;;3.40;;
48685;SDS011;34485;51.536;3.816;2022-08-11T14:22:32;4.72;;;3.83;;
48685;SDS011;34485;51.536;3.816;2022-08-11T14:24:59;5.80;;;3.50;;
48685;SDS011;34485;51.536;3.816;2022-08-11T14:27:26;12.10;;;3.27;;
48685;SDS011;34485;51.536;3.816;2022-08-11T14:29:55;3.20;;;2.95;;
48685;SDS011;34485;51.536;3.816;2022-08-11T14:32:22;3.55;;;3.25;;
48685;SDS011;34485;51.536;3.816;2022-08-11T14:34:49;3.47;;;3.17;;
48685;SDS011;34485;51.536;3.816;2022-08-11T14:37:19;3.60;;;3.17;;
48685;SDS011;34485;51.536;3.816;2022-08-11T14:39:53;3.03;;;2.73;;
48685;SDS011;34485;51.536;3.816;2022-08-11T14:42:22;4.75;;;3.38;;
48685;SDS011;34485;51.536;3.816;2022-08-11T14:45:14;3.65;;;3.25;;
48685;SDS011;34485;51.536;3.816;2022-08-11T14:48:00;3.45;;;3.13;;
48685;SDS011;34485;51.536;3.816;2022-08-11T14:50:30;3.28;;;2.92;;
48685;SDS011;34485;51.536;3.816;2022-08-11T14:52:57;2.90;;;2.70;;
48685;SDS011;34485;51.536;3.816;2022-08-11T14:55:28;4.40;;;3.55;;
48685;SDS011;34485;51.536;3.816;2022-08-11T14:58:18;3.53;;;3.22;;
48685;SDS011;34485;51.536;3.816;2022-08-11T15:00:45;3.55;;;2.92;;
48685;SDS011;34485;51.536;3.816;2022-08-11T15:03:16;4.20;;;3.17;;
48685;SDS011;34485;51.536;3.816;2022-08-11T15:08:20;3.70;;;3.00;;
48685;SDS011;34485;51.536;3.816;2022-08-11T15:11:10;3.17;;;2.92;;
48685;SDS011;34485;51.536;3.816;2022-08-11T15:13:56;9.73;;;2.88;;
48685;SDS011;34485;51.536;3.816;2022-08-11T15:16:24;5.65;;;3.25;;
48685;SDS011;34485;51.536;3.816;2022-08-11T15:19:10;3.00;;;2.73;;
48685;SDS011;34485;51.536;3.816;2022-08-11T15:21:37;6.60;;;3.10;;
48685;SDS011;34485;51.536;3.816;2022-08-11T15:24:21;3.22;;;2.92;;
48685;SDS011;34485;51.536;3.816;2022-08-11T15:26:48;4.03;;;2.90;;
48685;SDS011;34485;51.536;3.816;2022-08-11T15:29:34;6.95;;;2.90;;
48685;SDS011;34485;51.536;3.816;2022-08-11T15:32:21;3.23;;;2.60;;
48685;SDS011;34485;51.536;3.816;2022-08-11T15:35:07;6.35;;;2.92;;
48685;SDS011;34485;51.536;3.816;2022-08-11T15:37:54;4.53;;;3.00;;
48685;SDS011;34485;51.536;3.816;2022-08-11T15:40:26;4.82;;;2.70;;
48685;SDS011;34485;51.536;3.816;2022-08-11T15:43:17;7.60;;;2.70;;
48685;SDS011;34485;51.536;3.816;2022-08-11T15:46:11;3.20;;;2.90;;
48685;SDS011;34485;51.536;3.816;2022-08-11T15:49:55;3.28;;;3.08;;
48685;SDS011;34485;51.536;3.816;2022-08-11T15:52:09;11.55;;;2.83;;
48685;SDS011;34485;51.536;3.816;2022-08-11T15:54:39;4.22;;;2.60;;
48685;SDS011;34485;51.536;3.816;2022-08-11T15:57:10;4.57;;;2.78;;
48685;SDS011;34485;51.536;3.816;2022-08-11T15:59:59;5.43;;;2.70;;
48685;SDS011;34485;51.536;3.816;2022-08-11T16:02:49;3.45;;;2.85;;
48685;SDS011;34485;51.536;3.816;2022-08-11T16:05:34;6.00;;;3.17;;
48685;SDS011;34485;51.536;3.816;2022-08-11T16:08:01;3.28;;;2.78;;
48685;SDS011;34485;51.536;3.816;2022-08-11T16:10:27;2.83;;;2.63;;
48685;SDS011;34485;51.536;3.816;2022-08-11T16:15:28;3.63;;;2.85;;
48685;SDS011;34485;51.536;3.816;2022-08-11T16:18:15;3.00;;;2.80;;
48685;SDS011;34485;51.536;3.816;2022-08-11T16:20:44;4.85;;;3.30;;
48685;SDS011;34485;51.536;3.816;2022-08-11T16:23:11;3.30;;;3.10;;
48685;SDS011;34485;51.536;3.816;2022-08-11T16:25:39;3.73;;;3.03;;
48685;SDS011;34485;51.536;3.816;2022-08-11T16:28:06;7.10;;;3.05;;
48685;SDS011;34485;51.536;3.816;2022-08-11T16:30:36;2.90;;;2.70;;
48685;SDS011;34485;51.536;3.816;2022-08-11T16:33:05;3.15;;;2.92;;
48685;SDS011;34485;51.536;3.816;2022-08-11T16:35:33;4.38;;;2.90;;
48685;SDS011;34485;51.536;3.816;2022-08-11T16:38:23;5.63;;;2.97;;
48685;SDS011;34485;51.536;3.816;2022-08-11T16:41:01;2.95;;;2.70;;
48685;SDS011;34485;51.536;3.816;2022-08-11T16:43:33;3.25;;;2.95;;
48685;SDS011;34485;51.536;3.816;2022-08-11T16:46:22;2.63;;;2.42;;
48685;SDS011;34485;51.536;3.816;2022-08-11T16:49:09;5.57;;;2.95;;
48685;SDS011;34485;51.536;3.816;2022-08-11T16:51:44;3.00;;;2.70;;
48685;SDS011;34485;51.536;3.816;2022-08-11T16:54:11;7.38;;;2.67;;
48685;SDS011;34485;51.536;3.816;2022-08-11T16:59:08;3.00;;;2.80;;
48685;SDS011;34485;51.536;3.816;2022-08-11T17:01:42;3.00;;;2.80;;
48685;SDS011;34485;51.536;3.816;2022-08-11T17:04:15;2.60;;;2.40;;
48685;SDS011;34485;51.536;3.816;2022-08-11T17:07:20;4.07;;;2.88;;
48685;SDS011;34485;51.536;3.816;2022-08-11T17:10:08;2.97;;;2.40;;
48685;SDS011;34485;51.536;3.816;2022-08-11T17:12:57;3.45;;;2.60;;
48685;SDS011;34485;51.536;3.816;2022-08-11T17:15:37;3.20;;;2.90;;
48685;SDS011;34485;51.536;3.816;2022-08-11T17:18:26;3.07;;;2.60;;
48685;SDS011;34485;51.536;3.816;2022-08-11T17:21:04;2.90;;;2.70;;
48685;SDS011;34485;51.536;3.816;2022-08-11T17:23:32;10.20;;;2.60;;
48685;SDS011;34485;51.536;3.816;2022-08-11T17:28:53;3.33;;;2.78;;
48685;SDS011;34485;51.536;3.816;2022-08-11T17:31:22;2.83;;;2.63;;
48685;SDS011;34485;51.536;3.816;2022-08-11T17:34:06;4.97;;;2.85;;
48685;SDS011;34485;51.536;3.816;2022-08-11T17:36:52;3.97;;;2.75;;
48685;SDS011;34485;51.536;3.816;2022-08-11T17:39:19;2.60;;;2.40;;
48685;SDS011;34485;51.536;3.816;2022-08-11T17:41:48;3.05;;;2.80;;
48685;SDS011;34485;51.536;3.816;2022-08-11T17:44:34;4.07;;;2.43;;
48685;SDS011;34485;51.536;3.816;2022-08-11T17:47:21;2.90;;;2.70;;
48685;SDS011;34485;51.536;3.816;2022-08-11T17:50:06;2.70;;;2.47;;
48685;SDS011;34485;51.536;3.816;2022-08-11T17:52:33;8.23;;;2.65;;
48685;SDS011;34485;51.536;3.816;2022-08-11T17:55:18;2.72;;;2.53;;
48685;SDS011;34485;51.536;3.816;2022-08-11T17:58:04;5.77;;;2.70;;
48685;SDS011;34485;51.536;3.816;2022-08-11T18:00:49;3.65;;;2.90;;
48685;SDS011;34485;51.536;3.816;2022-08-11T18:03:18;3.13;;;2.85;;
48685;SDS011;34485;51.536;3.816;2022-08-11T18:05:59;6.55;;;2.65;;
48685;SDS011;34485;51.536;3.816;2022-08-11T18:08:27;2.55;;;2.35;;
48685;SDS011;34485;51.536;3.816;2022-08-11T18:11:15;2.53;;;2.33;;
48685;SDS011;34485;51.536;3.816;2022-08-11T18:14:05;2.83;;;2.40;;
48685;SDS011;34485;51.536;3.816;2022-08-11T18:16:51;3.00;;;2.58;;
48685;SDS011;34485;51.536;3.816;2022-08-11T18:19:35;2.38;;;2.28;;
48685;SDS011;34485;51.536;3.816;2022-08-11T18:22:25;8.13;;;2.85;;
48685;SDS011;34485;51.536;3.816;2022-08-11T18:25:20;2.43;;;2.23;;
48685;SDS011;34485;51.536;3.816;2022-08-11T18:28:08;2.63;;;2.35;;
48685;SDS011;34485;51.536;3.816;2022-08-11T18:30:56;2.72;;;2.50;;
48685;SDS011;34485;51.536;3.816;2022-08-11T18:33:50;2.92;;;2.63;;
48685;SDS011;34485;51.536;3.816;2022-08-11T18:36:37;2.67;;;2.17;;
48685;SDS011;34485;51.536;3.816;2022-08-11T18:39:32;2.60;;;2.40;;
48685;SDS011;34485;51.536;3.816;2022-08-11T18:42:19;2.80;;;2.58;;
48685;SDS011;34485;51.536;3.816;2022-08-11T18:45:06;3.83;;;2.80;;
48685;SDS011;34485;51.536;3.816;2022-08-11T18:47:57;3.90;;;2.85;;
48685;SDS011;34485;51.536;3.816;2022-08-11T18:50:44;2.83;;;2.63;;
48685;SDS011;34485;51.536;3.816;2022-08-11T18:53:30;10.60;;;2.70;;
48685;SDS011;34485;51.536;3.816;2022-08-11T18:56:18;2.42;;;2.30;;
48685;SDS011;34485;51.536;3.816;2022-08-11T18:59:04;18.20;;;3.22;;
48685;SDS011;34485;51.536;3.816;2022-08-11T19:01:50;3.05;;;2.75;;
48685;SDS011;34485;51.536;3.816;2022-08-11T19:04:37;6.28;;;3.10;;
48685;SDS011;34485;51.536;3.816;2022-08-11T19:07:22;6.77;;;2.97;;
48685;SDS011;34485;51.536;3.816;2022-08-11T19:10:07;5.32;;;2.80;;
48685;SDS011;34485;51.536;3.816;2022-08-11T19:12:53;8.27;;;3.08;;
48685;SDS011;34485;51.536;3.816;2022-08-11T19:15:39;5.78;;;2.75;;
48685;SDS011;34485;51.536;3.816;2022-08-11T19:18:25;6.85;;;3.00;;
48685;SDS011;34485;51.536;3.816;2022-08-11T19:21:10;3.27;;;2.93;;
48685;SDS011;34485;51.536;3.816;2022-08-11T19:23:57;5.82;;;2.97;;